Time;durP1;ratioP1;P1;durP2;ratioP2;P2;SDS_P1;SDS_P2;PMS_P1;PMS_P2;Temp;Humidity;BMP_temperature;BMP_pressure;BME280_temperature;BME280_humidity;BME280_pressure;Samples;Min_cycle;Max_cycle;Signal;HPM_P1;HPM_P2
2022/10/26 00:01:08;;;;;;;23.20;12.25;;;;;;;14.98;86.90;100845.66;5064363;28;20044;-73
2022/10/26 00:03:35;;;;;;;24.33;10.90;;;;;;;14.33;87.11;100723.97;5057463;28;20620;-72
2022/10/26 00:06:15;;;;;;;17.30;10.60;;;;;;;14.62;87.68;100775.63;5035177;28;20040;-73
2022/10/26 00:08:41;;;;;;;19.20;11.85;;;;;;;14.61;87.99;100769.47;5071709;28;20036;-73
2022/10/26 00:11:07;;;;;;;22.50;12.32;;;;;;;15.15;88.53;100870.16;5068375;28;20067;-72
2022/10/26 00:13:34;;;;;;;18.40;13.40;;;;;;;14.34;88.58;100747.69;5067394;28;20056;-71
2022/10/26 00:15:59;;;;;;;22.08;11.80;;;;;;;14.35;88.92;100738.91;5065885;28;20048;-74
2022/10/26 00:18:25;;;;;;;15.10;11.02;;;;;;;14.96;89.15;100864.19;5058619;28;20047;-72
2022/10/26 00:20:51;;;;;;;20.40;11.48;;;;;;;14.38;89.11;100745.91;5069939;28;20465;-72
2022/10/26 00:23:16;;;;;;;16.42;10.32;;;;;;;14.41;89.07;100745.88;5068784;28;20040;-75
2022/10/26 00:25:42;;;;;;;26.80;11.82;;;;;;;15.18;89.17;100875.38;5060287;28;20825;-72
2022/10/26 00:28:08;;;;;;;19.75;10.98;;;;;;;14.42;89.62;100768.75;5077275;28;20122;-73
2022/10/26 00:30:34;;;;;;;17.25;12.63;;;;;;;15.03;89.68;100846.50;5079718;28;20386;-72
2022/10/26 00:32:59;;;;;;;20.08;11.05;;;;;;;14.44;90.01;100774.88;5072968;28;20075;-73
2022/10/26 00:35:24;;;;;;;23.58;11.50;;;;;;;14.22;89.59;100729.34;5074841;28;20036;-72
2022/10/26 00:37:54;;;;;;;20.48;11.98;;;;;;;15.03;89.86;100872.94;5086609;28;20077;-73
2022/10/26 00:40:19;;;;;;;21.30;12.52;;;;;;;14.33;89.53;100759.16;5083932;28;20086;-72
2022/10/26 00:42:45;;;;;;;24.15;12.18;;;;;;;15.00;90.22;100888.81;5084634;28;20434;-71
2022/10/26 00:45:26;;;;;;;15.73;10.95;;;;;;;14.85;90.19;100860.78;5061739;28;20051;-73
2022/10/26 00:48:01;;;;;;;16.80;10.68;;;;;;;14.39;90.57;100789.88;5075752;28;20189;-72
2022/10/26 00:50:35;;;;;;;20.58;12.00;;;;;;;14.80;91.09;100874.91;5065127;28;20056;-73
2022/10/26 00:53:03;;;;;;;25.65;10.32;;;;;;;14.22;91.43;100755.72;5065778;28;20115;-72
2022/10/26 00:55:37;;;;;;;18.42;11.32;;;;;;;14.13;91.55;100748.78;5057094;28;20066;-72
2022/10/26 00:58:05;;;;;;;21.33;11.35;;;;;;;14.39;92.14;100800.44;5071237;28;20431;-72
2022/10/26 01:00:31;;;;;;;19.20;13.13;;;;;;;14.65;92.55;100860.09;5084175;28;20051;-72
2022/10/26 01:03:00;;;;;;;23.98;13.32;;;;;;;14.84;92.31;100879.28;5087510;28;20040;-74
2022/10/26 01:05:27;;;;;;;21.92;13.43;;;;;;;14.80;92.66;100872.25;5086912;28;20125;-73
2022/10/26 01:07:53;;;;;;;26.88;14.65;;;;;;;14.00;92.32;100748.88;5066339;28;20040;-73
2022/10/26 01:10:19;;;;;;;19.90;12.85;;;;;;;13.87;92.73;100729.66;5087574;28;20035;-73
2022/10/26 01:12:46;;;;;;;22.85;13.02;;;;;;;14.63;92.69;100864.50;5084655;28;20048;-73
2022/10/26 01:15:12;;;;;;;20.50;13.75;;;;;;;14.69;92.79;100878.53;5080692;28;20489;-72
2022/10/26 01:17:56;;;;;;;23.02;13.52;;;;;;;13.99;92.98;100755.94;5075413;28;20040;-73
2022/10/26 01:20:43;;;;;;;21.27;13.18;;;;;;;14.64;93.59;100884.78;5080877;28;20047;-73
2022/10/26 01:23:17;;;;;;;30.40;15.18;;;;;;;14.62;93.30;100876.84;5074219;28;20032;-73
2022/10/26 01:26:00;;;;;;;;;;;;;;;14.69;92.92;100881.19;5055613;28;20381;-73
2022/10/26 01:28:31;;;;;;;17.92;13.95;;;;;;;14.29;95.21;100891.19;5071020;28;19916;-73
2022/10/26 01:31:00;;;;;;;24.98;14.20;;;;;;;14.53;94.68;100883.03;5068054;28;20044;-73
2022/10/26 01:33:48;;;;;;;22.42;14.38;;;;;;;14.58;93.63;100872.47;5085142;28;20040;-72
2022/10/26 01:36:17;;;;;;;36.15;15.75;;;;;;;14.59;93.47;100881.31;5083836;28;20036;-72
2022/10/26 01:38:51;;;;;;;23.35;15.75;;;;;;;14.60;93.25;100875.97;5086896;28;20028;-73
2022/10/26 01:41:28;;;;;;;29.55;16.08;;;;;;;14.64;92.78;100877.72;5083021;28;20594;-73
2022/10/26 01:44:32;;;;;;;24.75;14.73;;;;;;;14.75;92.18;100889.06;5084654;28;20825;-72
2022/10/26 01:46:58;;;;;;;;;;;;;;;14.84;91.60;100890.72;5057072;28;20047;-71
2022/10/26 01:49:33;;;;;;;29.63;16.13;;;;;;;14.18;91.58;100793.59;5063285;28;19919;-72
2022/10/26 01:51:58;;;;;;;28.25;16.35;;;;;;;14.85;91.45;100888.97;5061786;28;20041;-72
2022/10/26 01:54:24;;;;;;;28.73;16.13;;;;;;;14.78;91.53;100889.03;5066183;28;20040;-74
2022/10/26 01:56:54;;;;;;;24.63;14.63;;;;;;;14.84;91.21;100892.50;5064492;28;20044;-72
2022/10/26 01:59:41;;;;;;;32.25;16.10;;;;;;;14.88;90.99;100895.09;5063600;28;20052;-72
2022/10/26 02:02:28;;;;;;;26.17;14.25;;;;;;;14.95;90.20;100902.06;5066732;28;20788;-72
2022/10/26 02:05:12;;;;;;;22.15;13.80;;;;;;;14.85;90.09;100875.75;5069901;28;20028;-72
2022/10/26 02:07:37;;;;;;;;;;;;;;;15.02;89.77;100897.59;5070384;28;20025;-72
2022/10/26 02:10:24;;;;;;;23.77;14.43;;;;;;;15.01;89.75;100911.72;5067048;28;20291;-72
2022/10/26 02:13:28;;;;;;;22.42;13.88;;;;;;;15.07;89.44;100905.47;5074128;28;20048;-72
2022/10/26 02:16:15;;;;;;;26.95;13.85;;;;;;;15.09;89.41;100907.19;5077563;28;20052;-74
2022/10/26 02:18:53;;;;;;;23.27;13.30;;;;;;;14.93;89.82;100917.06;5063523;28;20040;-73
2022/10/26 02:21:24;;;;;;;26.58;14.80;;;;;;;14.25;90.41;100818.19;5071876;28;20048;-73
2022/10/26 02:23:54;;;;;;;20.80;13.27;;;;;;;14.88;89.95;100923.28;5068247;28;20039;-73
2022/10/26 02:26:23;;;;;;;19.48;13.30;;;;;;;14.15;89.67;100780.44;5066086;28;20118;-74
2022/10/26 02:28:50;;;;;;;27.40;14.65;;;;;;;14.76;89.52;100876.72;5073942;28;20029;-73
2022/10/26 02:31:18;;;;;;;29.95;14.48;;;;;;;14.32;89.04;100801.41;5076826;28;20075;-72
2022/10/26 02:33:47;;;;;;;27.98;14.82;;;;;;;15.12;88.83;100935.38;5089179;28;20050;-73
2022/10/26 02:36:18;;;;;;;24.48;15.20;;;;;;;14.42;88.45;100800.44;5085978;28;20139;-74
2022/10/26 02:38:45;;;;;;;27.65;14.85;;;;;;;14.97;88.73;100913.50;5075025;28;20044;-74
2022/10/26 02:41:14;;;;;;;22.65;13.07;;;;;;;14.38;88.83;100818.97;5089665;28;20044;-73
2022/10/26 02:43:46;;;;;;;20.88;13.43;;;;;;;15.13;88.53;100934.50;5080818;28;20025;-73
2022/10/26 02:46:16;;;;;;;23.73;14.05;;;;;;;14.34;88.37;100802.25;5082174;28;20036;-73
2022/10/26 02:48:41;;;;;;;27.60;11.98;;;;;;;15.07;88.52;100916.91;5069181;28;20041;-73
2022/10/26 02:51:17;;;;;;;27.70;13.40;;;;;;;15.12;88.45;100933.59;5058069;28;20036;-72
2022/10/26 02:53:48;;;;;;;17.83;12.82;;;;;;;15.15;88.06;100938.88;5066010;28;20033;-73
2022/10/26 02:56:20;;;;;;;27.40;13.60;;;;;;;15.22;87.47;100941.44;5066298;28;20127;-73
2022/10/26 02:58:51;;;;;;;20.50;13.18;;;;;;;14.54;86.92;100817.97;5057231;28;20043;-73
2022/10/26 03:01:16;;;;;;;19.95;12.35;;;;;;;15.01;86.98;100889.66;5069182;28;20048;-72
2022/10/26 03:03:42;;;;;;;19.67;14.43;;;;;;;14.51;87.08;100816.16;5068710;28;20086;-73
2022/10/26 03:06:07;;;;;;;23.48;12.07;;;;;;;15.22;87.35;100946.72;5068992;28;20813;-73
2022/10/26 03:08:33;;;;;;;25.17;11.40;;;;;;;15.28;87.20;100949.31;5069340;28;20039;-72
2022/10/26 03:10:58;;;;;;;25.08;12.40;;;;;;;15.19;87.79;100952.91;5068844;28;20024;-73
2022/10/26 03:13:24;;;;;;;19.92;11.27;;;;;;;14.83;87.13;100875.78;5074244;28;20031;-72
2022/10/26 03:15:49;;;;;;;21.40;12.25;;;;;;;15.27;87.33;100952.88;5072283;28;20433;-72
2022/10/26 03:18:15;;;;;;;24.08;12.95;;;;;;;15.09;87.55;100952.13;5072557;28;20040;-73
2022/10/26 03:20:44;;;;;;;21.38;11.93;;;;;;;15.04;88.22;100943.38;5076474;28;20032;-73
2022/10/26 03:23:11;;;;;;;20.90;12.40;;;;;;;15.19;88.09;100964.41;5072961;28;20036;-73
2022/10/26 03:25:36;;;;;;;19.67;11.60;;;;;;;14.79;87.74;100881.97;5065378;28;20117;-73
2022/10/26 03:28:03;;;;;;;28.25;12.65;;;;;;;14.56;87.35;100839.91;5076304;28;20127;-73
2022/10/26 03:30:30;;;;;;;25.08;13.68;;;;;;;14.99;87.55;100937.28;5052685;28;20055;-73
2022/10/26 03:32:56;;;;;;;22.02;12.88;;;;;;;14.32;88.28;100849.78;5068139;28;20033;-73
2022/10/26 03:35:28;;;;;;;20.45;12.30;;;;;;;14.57;88.16;100879.53;5047901;28;20063;-72
2022/10/26 03:37:54;;;;;;;22.73;13.30;;;;;;;15.09;88.53;100977.69;5068374;28;20155;-73
2022/10/26 03:40:19;;;;;;;22.27;12.40;;;;;;;15.12;88.42;100973.25;5050947;28;20456;-75
2022/10/26 03:42:45;;;;;;;23.25;13.18;;;;;;;15.03;88.40;100952.22;5067167;28;20403;-72
2022/10/26 03:45:10;;;;;;;21.50;11.73;;;;;;;14.48;87.98;100858.44;5069180;28;20045;-72
2022/10/26 03:47:42;;;;;;;24.95;11.77;;;;;;;15.03;88.23;100976.00;5074475;28;20040;-73
2022/10/26 03:50:08;;;;;;;27.45;15.02;;;;;;;14.88;89.29;100992.84;5065888;28;20040;-73
2022/10/26 03:52:34;;;;;;;28.00;14.75;;;;;;;14.69;89.71;100963.06;5051108;28;20020;-73
2022/10/26 03:54:59;;;;;;;20.73;11.35;;;;;;;14.71;89.77;100977.16;5065994;28;20041;-72
2022/10/26 03:57:25;;;;;;;20.30;13.10;;;;;;;14.65;90.15;100965.75;5050565;28;20464;-72
2022/10/26 03:59:50;;;;;;;20.33;12.52;;;;;;;14.71;90.75;100989.50;5065921;28;20349;-72
2022/10/26 04:02:16;;;;;;;19.58;12.15;;;;;;;14.49;90.70;100949.09;5063952;28;21124;-72
2022/10/26 04:04:41;;;;;;;20.40;12.63;;;;;;;14.23;90.26;100904.41;5081342;28;20032;-73
2022/10/26 04:07:07;;;;;;;29.27;13.93;;;;;;;14.63;90.80;100991.28;5076844;28;20078;-73
2022/10/26 04:09:32;;;;;;;19.88;12.57;;;;;;;14.65;90.47;100990.38;5088119;28;20462;-72
2022/10/26 04:11:58;;;;;;;24.15;13.18;;;;;;;14.80;90.11;100989.41;5069286;28;20085;-73
2022/10/26 04:14:23;;;;;;;15.93;11.02;;;;;;;14.09;90.33;100871.09;5065002;28;20036;-73
2022/10/26 04:16:48;;;;;;;23.73;13.68;;;;;;;14.43;90.50;100952.69;5077500;28;20691;-73
2022/10/26 04:19:14;;;;;;;19.67;12.57;;;;;;;14.22;90.41;100879.78;5087129;28;20085;-72
2022/10/26 04:21:39;;;;;;;22.15;13.63;;;;;;;14.14;90.36;100864.03;5087652;28;20032;-72
2022/10/26 04:24:05;;;;;;;24.98;13.45;;;;;;;14.80;90.54;100970.91;5086970;28;20115;-74
2022/10/26 04:26:31;;;;;;;25.98;14.07;;;;;;;14.83;90.52;100976.16;5061498;28;20036;-74
2022/10/26 04:28:56;;;;;;;25.98;12.70;;;;;;;14.59;90.60;100965.81;5067698;28;20028;-73
2022/10/26 04:31:22;;;;;;;28.30;14.13;;;;;;;14.57;91.74;100977.25;5068457;28;20039;-74
2022/10/26 04:33:47;;;;;;;22.73;12.45;;;;;;;13.56;92.33;100843.28;5085146;28;20126;-73
2022/10/26 04:36:13;;;;;;;22.08;12.40;;;;;;;13.72;93.09;100900.34;5067066;28;20463;-73
2022/10/26 04:38:38;;;;;;;15.63;11.27;;;;;;;13.44;92.96;100870.59;5072867;28;20044;-72
2022/10/26 04:41:04;;;;;;;23.63;12.50;;;;;;;14.39;91.85;101002.88;5081540;28;20415;-72
2022/10/26 04:43:29;;;;;;;22.75;13.18;;;;;;;13.69;91.41;100865.19;5085820;28;20081;-73
2022/10/26 04:45:56;;;;;;;27.60;12.65;;;;;;;14.40;91.10;100978.22;5061349;28;20037;-73
2022/10/26 04:48:21;;;;;;;21.25;12.20;;;;;;;14.30;91.53;100991.47;5066869;28;20040;-73
2022/10/26 04:50:46;;;;;;;22.20;12.15;;;;;;;13.66;91.60;100873.97;5070713;28;20033;-72
2022/10/26 04:53:12;;;;;;;28.38;12.57;;;;;;;14.43;91.84;101002.84;5048270;28;20048;-73
2022/10/26 04:55:37;;;;;;;19.75;11.15;;;;;;;14.42;92.12;101008.13;5059362;28;20036;-73
2022/10/26 04:58:04;;;;;;;19.27;14.27;;;;;;;14.35;92.23;100989.69;5071744;28;20071;-74
2022/10/26 05:00:31;;;;;;;38.30;13.57;;;;;;;13.73;92.29;100882.75;5081870;28;20119;-72
2022/10/26 05:03:01;;;;;;;30.13;14.15;;;;;;;13.67;93.00;100878.41;5062291;28;20130;-74
2022/10/26 05:05:27;;;;;;;43.47;15.27;;;;;;;13.62;93.57;100881.91;5066083;28;20392;-72
2022/10/26 05:07:55;;;;;;;35.38;13.80;;;;;;;13.70;93.87;100890.69;5066596;28;20457;-73
2022/10/26 05:10:20;;;;;;;26.70;14.18;;;;;;;13.71;93.96;100900.34;5066902;28;20029;-73
2022/10/26 05:12:53;;;;;;;31.52;14.20;;;;;;;13.53;94.75;100893.38;5063354;28;20087;-74
2022/10/26 05:15:18;;;;;;;37.10;20.30;;;;;;;13.49;94.39;100879.34;5065890;28;20052;-71
2022/10/26 05:17:44;;;;;;;40.15;14.07;;;;;;;14.34;94.33;101035.44;5066279;28;20106;-73
2022/10/26 05:20:12;;;;;;;25.65;13.27;;;;;;;14.26;94.46;101037.28;5066024;28;20082;-72
2022/10/26 05:22:38;;;;;;;26.63;13.43;;;;;;;13.58;94.47;100925.00;5066882;28;20012;-74
2022/10/26 05:25:04;;;;;;;24.55;12.70;;;;;;;14.13;93.54;101006.53;5065283;28;20037;-73
2022/10/26 05:27:30;;;;;;;22.90;10.80;;;;;;;14.46;92.22;101050.34;5066383;28;20130;-72
2022/10/26 05:29:55;;;;;;;18.15;10.00;;;;;;;13.78;91.47;100911.72;5077370;28;20480;-74
2022/10/26 05:32:21;;;;;;;25.42;12.38;;;;;;;14.01;91.11;100944.16;5053286;28;20407;-72
2022/10/26 05:34:46;;;;;;;25.42;10.32;;;;;;;14.46;90.53;101010.75;5043824;28;20487;-73
2022/10/26 05:37:12;;;;;;;37.35;12.75;;;;;;;14.46;90.34;100994.03;5057543;28;20052;-72
2022/10/26 05:39:37;;;;;;;24.42;11.52;;;;;;;14.06;89.87;100921.25;5049199;28;20135;-71
2022/10/26 05:42:03;;;;;;;22.15;12.43;;;;;;;14.75;89.91;101047.56;5041857;28;20134;-72
2022/10/26 05:44:28;;;;;;;24.33;12.18;;;;;;;14.18;89.39;100938.75;5057807;28;20075;-72
2022/10/26 05:46:54;;;;;;;22.38;12.02;;;;;;;14.26;88.44;100946.66;5044070;28;20043;-73
2022/10/26 05:49:19;;;;;;;17.60;12.30;;;;;;;15.05;88.46;101063.19;5059219;28;20481;-77
2022/10/26 05:51:45;;;;;;;24.27;13.18;;;;;;;14.28;88.17;100927.28;5055684;28;20070;-72
2022/10/26 05:54:10;;;;;;;23.85;12.13;;;;;;;15.12;88.01;101073.69;5050135;28;20408;-72
2022/10/26 05:56:38;;;;;;;27.23;13.73;;;;;;;15.03;88.22;101044.72;5058501;28;20234;-73
2022/10/26 05:59:10;;;;;;;16.85;10.00;;;;;;;14.60;87.12;100955.22;5041491;28;20097;-73
2022/10/26 06:01:54;;;;;;;17.55;11.52;;;;;;;15.45;86.58;101084.00;5072906;28;20044;-74
2022/10/26 06:04:37;;;;;;;25.10;12.35;;;;;;;15.49;86.43;101083.97;5076831;28;20037;-73
2022/10/26 06:07:09;;;;;;;26.67;11.70;;;;;;;15.56;86.09;101093.59;5062941;28;20048;-73
2022/10/26 06:09:36;;;;;;;18.27;11.53;;;;;;;15.45;85.04;101061.06;5077240;28;20075;-72
2022/10/26 06:12:01;;;;;;;15.80;10.63;;;;;;;15.69;84.54;101091.72;5072247;28;20048;-73
2022/10/26 06:14:27;;;;;;;28.95;12.40;;;;;;;15.82;84.07;101093.34;5081021;28;20418;-73
2022/10/26 06:17:14;;;;;;;21.55;10.65;;;;;;;15.87;83.18;101095.94;5084570;28;20040;-73
2022/10/26 06:19:48;;;;;;;16.80;9.02;;;;;;;15.92;83.43;101091.50;5086207;28;20057;-75
2022/10/26 06:22:25;;;;;;;22.63;11.07;;;;;;;16.04;83.32;101096.66;5073013;28;20159;-73
2022/10/26 06:25:21;;;;;;;24.42;10.18;;;;;;;15.35;83.29;100978.31;5062696;28;20044;-73
2022/10/26 06:28:30;;;;;;;15.20;10.98;;;;;;;16.20;82.10;101115.88;5059111;28;20055;-74
2022/10/26 06:30:56;;;;;;;18.23;9.68;;;;;;;15.51;80.44;100978.16;5064755;28;20059;-74
2022/10/26 06:33:23;;;;;;;17.38;8.70;;;;;;;15.43;79.62;100950.91;5064885;28;20099;-75
2022/10/26 06:36:18;;;;;;;18.70;8.40;;;;;;;16.41;79.98;101098.84;5064281;28;20040;-73
2022/10/26 06:38:44;;;;;;;19.48;8.57;;;;;;;16.32;78.78;101083.09;5064534;28;20044;-75
2022/10/26 06:41:14;;;;;;;15.88;10.13;;;;;;;16.52;79.76;101108.44;5045077;28;20032;-75
2022/10/26 06:43:40;;;;;;;18.75;9.93;;;;;;;16.40;79.16;101112.97;5076317;28;20031;-74
2022/10/26 06:46:25;;;;;;;15.50;8.60;;;;;;;16.43;78.78;101114.72;5071148;28;20120;-74
2022/10/26 06:49:07;;;;;;;26.45;9.35;;;;;;;16.44;78.86;101125.28;5069648;28;20108;-72
2022/10/26 06:51:41;;;;;;;20.38;9.48;;;;;;;15.83;78.91;101001.63;5073381;28;20062;-73
2022/10/26 06:54:24;;;;;;;16.23;9.00;;;;;;;16.45;78.75;101132.34;5055155;28;20098;-73
2022/10/26 06:56:51;;;;;;;18.83;9.55;;;;;;;16.28;78.36;101110.50;5062280;28;20120;-72
2022/10/26 06:59:51;;;;;;;22.67;8.93;;;;;;;16.07;78.32;101052.50;5054668;28;20400;-72
2022/10/26 07:02:17;;;;;;;29.05;10.60;;;;;;;15.89;77.68;100995.38;5067411;28;20040;-73
2022/10/26 07:04:43;;;;;;;20.65;10.43;;;;;;;15.99;77.61;101024.38;5067089;28;20452;-73
2022/10/26 07:07:14;;;;;;;18.25;9.60;;;;;;;16.19;77.45;101041.75;5068146;28;20059;-75
2022/10/26 07:09:40;;;;;;;19.33;10.02;;;;;;;16.58;77.40;101138.38;5067524;28;20037;-72
2022/10/26 07:12:06;;;;;;;24.63;11.13;;;;;;;16.65;77.72;101129.44;5071481;28;20043;-75
2022/10/26 07:14:31;;;;;;;15.23;10.00;;;;;;;15.28;77.39;100930.81;5077025;28;20542;-74
2022/10/26 07:16:57;;;;;;;19.77;9.88;;;;;;;16.65;76.99;101148.00;5081551;28;20082;-73
2022/10/26 07:19:23;;;;;;;27.42;9.80;;;;;;;16.58;77.32;101124.25;5069152;28;20127;-72
2022/10/26 07:21:48;;;;;;;20.48;8.90;;;;;;;16.19;77.09;101057.66;5080442;28;20127;-73
2022/10/26 07:24:14;;;;;;;31.63;10.35;;;;;;;16.47;77.46;101095.25;5043809;28;20118;-73
2022/10/26 07:26:39;;;;;;;33.92;10.95;;;;;;;16.74;76.49;101152.31;5062630;28;20045;-75
2022/10/26 07:29:05;;;;;;;13.15;8.18;;;;;;;15.96;76.23;101011.16;5049480;28;20033;-73
2022/10/26 07:31:37;;;;;;;16.80;10.23;;;;;;;16.23;76.27;101047.00;5066103;28;20418;-73
2022/10/26 07:34:03;;;;;;;24.13;9.60;;;;;;;16.88;75.89;101154.78;5052004;28;20052;-73
2022/10/26 07:36:28;;;;;;;14.43;8.30;;;;;;;16.70;75.63;101129.38;5077459;28;20044;-74
2022/10/26 07:38:54;;;;;;;16.13;8.52;;;;;;;16.09;75.32;101019.81;5087167;28;20059;-74
2022/10/26 07:41:19;;;;;;;15.77;10.35;;;;;;;16.98;75.26;101155.53;5087697;28;20473;-74
2022/10/26 07:43:45;;;;;;;12.93;7.57;;;;;;;16.91;74.48;101133.53;5085066;28;20032;-74
2022/10/26 07:46:11;;;;;;;12.50;7.47;;;;;;;16.93;74.33;101163.56;5064978;28;20052;-73
2022/10/26 07:48:38;;;;;;;11.77;7.85;;;;;;;16.97;74.52;101151.13;5061937;28;20041;-74
2022/10/26 07:51:04;;;;;;;12.38;7.45;;;;;;;16.98;74.84;101153.75;5049199;28;20053;-74
2022/10/26 07:53:29;;;;;;;12.38;7.00;;;;;;;17.17;75.23;101169.41;5082000;28;20139;-74
2022/10/26 07:55:56;;;;;;;12.05;7.38;;;;;;;17.03;75.15;101137.78;5065704;28;20028;-74
2022/10/26 07:58:24;;;;;;;16.23;7.15;;;;;;;16.91;74.05;101106.16;5073265;28;20122;-73
2022/10/26 08:00:51;;;;;;;19.15;7.75;;;;;;;17.28;74.15;101170.97;5061977;28;20056;-73
2022/10/26 08:03:17;;;;;;;13.52;9.00;;;;;;;17.40;73.12;101163.75;5071954;28;20040;-73
2022/10/26 08:05:44;;;;;;;16.83;8.27;;;;;;;17.42;72.66;101160.16;5086328;28;20032;-73
2022/10/26 08:08:10;;;;;;;13.30;7.65;;;;;;;16.94;73.03;101066.34;5071289;28;20447;-73
2022/10/26 08:10:35;;;;;;;16.40;8.35;;;;;;;17.50;72.79;101160.03;5065036;28;20024;-73
2022/10/26 08:13:01;;;;;;;21.27;7.28;;;;;;;17.56;72.33;101157.28;5069297;28;20052;-74
2022/10/26 08:15:47;;;;;;;15.60;7.70;;;;;;;17.53;72.93;101162.63;5075025;28;20052;-74
2022/10/26 08:18:13;;;;;;;13.43;7.85;;;;;;;17.47;73.54;101154.78;5065079;28;20063;-74
2022/10/26 08:20:38;;;;;;;9.82;5.93;;;;;;;17.61;70.98;101168.69;5064718;28;20473;-73
2022/10/26 08:23:05;;;;;;;10.90;7.03;;;;;;;17.73;70.19;101138.41;5064616;28;20039;-74
2022/10/26 08:25:31;;;;;;;17.45;7.32;;;;;;;17.82;70.09;101169.25;5058768;28;20028;-73
2022/10/26 08:28:01;;;;;;;11.95;6.63;;;;;;;17.98;70.16;101159.22;5068586;28;20083;-73
2022/10/26 08:30:28;;;;;;;13.07;5.72;;;;;;;18.08;70.27;101160.81;5067040;28;20139;-73
2022/10/26 08:33:01;;;;;;;10.75;5.70;;;;;;;18.23;68.71;101157.84;5066864;28;20134;-73
2022/10/26 08:35:27;;;;;;;10.27;4.70;;;;;;;18.05;68.94;101137.84;5066849;28;20081;-73
2022/10/26 08:37:53;;;;;;;12.60;5.40;;;;;;;18.41;67.22;101163.69;5066227;28;20024;-72
2022/10/26 08:40:25;;;;;;;11.90;7.05;;;;;;;18.23;67.21;101133.91;5066734;28;20032;-74
2022/10/26 08:42:57;;;;;;;12.25;5.93;;;;;;;17.41;67.53;101044.31;5070219;28;20051;-73
2022/10/26 08:45:28;;;;;;;7.93;4.85;;;;;;;18.18;68.36;101166.81;5060565;28;20057;-74
2022/10/26 08:48:02;;;;;;;8.70;5.20;;;;;;;18.02;68.92;101134.34;5075905;28;20433;-74
2022/10/26 08:50:36;;;;;;;12.40;5.85;;;;;;;18.38;68.30;101177.94;5065660;28;20059;-74
2022/10/26 08:53:15;;;;;;;8.30;3.72;;;;;;;18.55;66.16;101182.91;5072374;28;20059;-74
2022/10/26 08:55:45;;;;;;;9.63;3.95;;;;;;;18.13;66.15;101089.88;5053105;28;20017;-74
2022/10/26 08:58:15;;;;;;;9.75;5.55;;;;;;;18.44;65.90;101171.59;5062974;28;20117;-74
2022/10/26 09:00:41;;;;;;;10.43;3.95;;;;;;;18.42;66.20;101163.66;5055573;28;20113;-73
2022/10/26 09:03:13;;;;;;;7.05;3.72;;;;;;;18.42;65.89;101145.03;5069715;28;20032;-74
2022/10/26 09:06:18;;;;;;;8.73;4.45;;;;;;;18.62;66.28;101183.66;5070311;28;20040;-74
2022/10/26 09:08:51;;;;;;;8.55;4.47;;;;;;;18.56;66.91;101168.69;5036818;28;20194;-74
2022/10/26 09:11:32;;;;;;;8.75;4.40;;;;;;;18.65;65.07;101196.88;5070553;28;20106;-74
2022/10/26 09:14:08;;;;;;;6.32;3.35;;;;;;;18.94;65.41;101185.63;5077405;28;20120;-73
2022/10/26 09:16:53;;;;;;;6.25;4.22;;;;;;;18.75;64.99;101188.69;5076839;28;20495;-74
2022/10/26 09:19:27;;;;;;;10.15;5.13;;;;;;;18.66;65.41;101191.53;5075422;28;20059;-73
2022/10/26 09:22:09;;;;;;;9.82;6.10;;;;;;;18.64;65.95;101179.19;5081730;28;20040;-74
2022/10/26 09:24:55;;;;;;;8.70;4.80;;;;;;;18.97;65.50;101185.56;5054360;28;20048;-75
2022/10/26 09:27:39;;;;;;;17.40;6.63;;;;;;;18.87;65.93;101184.91;5072368;28;20135;-75
2022/10/26 09:30:13;;;;;;;12.38;6.82;;;;;;;18.18;66.54;101068.53;5081412;28;20042;-73
2022/10/26 09:32:46;;;;;;;16.60;5.57;;;;;;;18.67;65.36;101158.69;5079450;28;20071;-74
2022/10/26 09:35:25;;;;;;;10.25;5.75;;;;;;;18.77;65.64;101202.81;5068259;28;20040;-72
2022/10/26 09:38:13;;;;;;;8.40;5.75;;;;;;;18.95;65.37;101179.41;5067021;28;20043;-73
2022/10/26 09:41:03;;;;;;;35.75;6.97;;;;;;;19.02;65.43;101178.34;5074342;28;20043;-75
2022/10/26 09:43:46;;;;;;;13.65;6.50;;;;;;;18.92;64.93;101158.22;5061516;28;20112;-73
2022/10/26 09:46:17;;;;;;;11.35;6.22;;;;;;;19.07;65.45;101179.13;5061985;28;20094;-74
2022/10/26 09:48:48;;;;;;;9.75;4.72;;;;;;;18.59;63.96;101067.63;5047045;28;20041;-73
2022/10/26 09:51:17;;;;;;;18.92;7.60;;;;;;;19.13;64.72;101152.38;5062490;28;20044;-75
2022/10/26 09:53:42;;;;;;;20.13;5.10;;;;;;;19.18;64.33;101158.47;5056980;28;20041;-74
2022/10/26 09:56:12;;;;;;;16.13;5.43;;;;;;;19.19;64.32;101175.31;5064379;28;20568;-74
2022/10/26 09:58:52;;;;;;;12.15;6.75;;;;;;;18.58;64.73;101054.38;5077194;28;20032;-74
2022/10/26 10:01:28;;;;;;;7.00;4.72;;;;;;;19.19;63.56;101162.00;5055582;28;20040;-72
2022/10/26 10:04:10;;;;;;;15.68;5.20;;;;;;;19.12;62.90;101139.97;5066071;28;20059;-75
2022/10/26 10:06:35;;;;;;;9.23;5.15;;;;;;;19.37;62.79;101150.06;5059348;28;20472;-73
2022/10/26 10:09:11;;;;;;;8.82;4.72;;;;;;;19.21;62.99;101146.00;5063535;28;20049;-74
2022/10/26 10:12:03;;;;;;;12.65;4.78;;;;;;;19.33;63.62;101151.91;5070858;28;20056;-75
2022/10/26 10:14:32;;;;;;;9.65;5.13;;;;;;;19.43;63.17;101167.63;5061739;28;20043;-73
2022/10/26 10:17:01;;;;;;;11.02;4.95;;;;;;;19.06;61.32;101064.75;5045578;28;20201;-73
2022/10/26 10:19:32;;;;;;;5.88;4.10;;;;;;;19.60;60.68;101146.81;5065099;28;20036;-73
2022/10/26 10:22:07;;;;;;;8.98;5.20;;;;;;;18.96;61.10;101050.81;5056828;28;20066;-73
2022/10/26 10:24:35;;;;;;;10.68;4.15;;;;;;;19.35;60.71;101101.31;5067804;28;20036;-74
2022/10/26 10:27:16;;;;;;;11.25;5.50;;;;;;;19.06;60.33;101019.53;5063893;28;20040;-73
2022/10/26 10:29:48;;;;;;;9.45;4.40;;;;;;;19.56;60.79;101138.00;5076667;28;20090;-73
2022/10/26 10:32:19;;;;;;;9.10;4.88;;;;;;;19.66;60.57;101120.00;5051893;28;20041;-74
2022/10/26 10:34:46;;;;;;;13.50;3.45;;;;;;;20.17;58.65;101140.84;5064519;28;20384;-73
2022/10/26 10:37:45;;;;;;;8.23;3.95;;;;;;;19.48;57.96;101024.66;5078716;28;20624;-73
2022/10/26 10:40:19;;;;;;;8.05;3.80;;;;;;;19.84;59.06;101108.03;5078829;28;20053;-73
2022/10/26 10:42:47;;;;;;;7.60;4.32;;;;;;;19.74;58.34;101063.94;5049051;28;20113;-74
2022/10/26 10:45:22;;;;;;;8.20;4.82;;;;;;;19.75;58.08;101045.22;5068269;28;20072;-74
2022/10/26 10:48:12;;;;;;;13.18;4.07;;;;;;;20.38;57.76;101119.84;5049642;28;20421;-72
2022/10/26 10:51:03;;;;;;;6.35;3.35;;;;;;;20.02;58.23;101127.97;5065672;28;20078;-75
2022/10/26 10:53:44;;;;;;;22.85;4.07;;;;;;;20.26;57.61;101117.53;5070741;28;20742;-74
2022/10/26 10:56:51;;;;;;;13.32;5.80;;;;;;;20.48;57.74;101133.78;5039966;28;20488;-74
2022/10/26 10:59:35;;;;;;;8.13;4.13;;;;;;;20.42;56.82;101124.16;5032499;28;20118;-74
2022/10/26 11:02:38;;;;;;;6.97;3.40;;;;;;;20.30;56.81;101113.84;5070468;28;20074;-73
2022/10/26 11:05:37;;;;;;;16.20;4.97;;;;;;;20.59;56.92;101116.56;5071086;28;20035;-73
2022/10/26 11:08:08;;;;;;;8.65;4.40;;;;;;;20.57;55.53;101104.19;5072923;28;20028;-74
2022/10/26 11:10:39;;;;;;;7.15;3.55;;;;;;;20.48;54.58;101123.97;5063748;28;20063;-74
2022/10/26 11:13:29;;;;;;;7.35;3.70;;;;;;;20.59;54.75;101113.03;5050426;28;20135;-73
2022/10/26 11:16:00;;;;;;;14.10;6.68;;;;;;;20.65;54.93;101111.06;5067177;28;20036;-75
2022/10/26 11:18:32;;;;;;;15.88;4.78;;;;;;;20.05;54.38;101005.31;5039410;28;20068;-72
2022/10/26 11:21:27;;;;;;;6.03;3.88;;;;;;;20.45;54.22;101116.06;5047680;28;20594;-73
2022/10/26 11:24:12;;;;;;;13.27;3.90;;;;;;;20.75;53.37;101130.31;5033945;28;20037;-74
2022/10/26 11:26:37;;;;;;;12.55;5.32;;;;;;;20.84;51.59;101114.03;5035532;28;20191;-73
2022/10/26 11:29:35;;;;;;;16.00;3.60;;;;;;;20.86;53.01;101121.97;5047876;28;20532;-73
2022/10/26 11:32:19;;;;;;;5.68;3.28;;;;;;;20.69;51.78;101117.16;5020176;28;20041;-72
2022/10/26 11:35:12;;;;;;;6.00;3.33;;;;;;;20.54;51.39;101106.94;5047965;28;20032;-73